Time;durP1;ratioP1;P1;durP2;ratioP2;P2;SDS_P1;SDS_P2;PMS_P1;PMS_P2;Temp;Humidity;BMP_temperature;BMP_pressure;BME280_temperature;BME280_humidity;BME280_pressure;Samples;Min_cycle;Max_cycle;Signal;HPM_P1;HPM_P2
2024/04/06 00:01:48;;;;;;;236.60;19.40;;;;;;;6.56;100.00;100024.56;5080600;28;20027;-73
2024/04/06 00:04:13;;;;;;;158.77;18.17;;;;;;;6.72;100.00;100052.88;5080459;28;20036;-74
2024/04/06 00:06:39;;;;;;;179.27;18.55;;;;;;;6.74;100.00;100055.34;5096333;28;20505;-73
2024/04/06 00:09:04;;;;;;;303.27;20.52;;;;;;;6.58;100.00;100053.75;5079853;28;20033;-73
2024/04/06 00:11:30;;;;;;;258.27;18.85;;;;;;;6.63;100.00;100075.41;5063587;28;20027;-73
2024/04/06 00:13:55;;;;;;;183.20;14.73;;;;;;;6.59;100.00;100085.66;5097418;28;20079;-73
2024/04/06 00:16:20;;;;;;;103.55;12.48;;;;;;;6.57;100.00;100095.69;5115683;28;20024;-73
2024/04/06 00:18:46;;;;;;;148.98;13.93;;;;;;;6.52;100.00;100108.81;5096890;28;20030;-74
2024/04/06 00:21:11;;;;;;;132.90;14.55;;;;;;;6.43;100.00;100087.75;5080141;28;20382;-72
2024/04/06 00:23:37;;;;;;;104.78;12.23;;;;;;;6.37;100.00;100105.34;5063151;28;20032;-74
2024/04/06 00:26:02;;;;;;;108.75;13.00;;;;;;;6.40;100.00;100123.69;5079241;28;20032;-73
2024/04/06 00:28:28;;;;;;;97.47;11.88;;;;;;;6.14;100.00;100091.31;5079368;28;20047;-73
2024/04/06 00:30:54;;;;;;;261.40;15.43;;;;;;;6.26;100.00;100133.41;5063262;28;20042;-73
2024/04/06 00:33:20;;;;;;;98.10;8.57;;;;;;;6.20;100.00;100138.66;5114850;28;20390;-73
2024/04/06 00:35:45;;;;;;;101.00;7.13;;;;;;;6.06;100.00;100143.84;5115628;28;20042;-74
2024/04/06 00:38:11;;;;;;;85.35;6.50;;;;;;;5.44;100.00;100064.09;5079710;28;20106;-73
2024/04/06 00:40:36;;;;;;;74.97;5.60;;;;;;;5.82;100.00;100158.25;5097217;28;20032;-73
2024/04/06 00:43:03;;;;;;;34.72;4.32;;;;;;;5.74;100.00;100169.03;5096566;28;20027;-73
2024/04/06 00:45:28;;;;;;;36.67;5.13;;;;;;;5.30;100.00;100115.63;5095986;28;20020;-73
2024/04/06 00:47:54;;;;;;;96.43;5.93;;;;;;;5.57;100.00;100181.72;5114619;28;20063;-74
2024/04/06 00:50:20;;;;;;;31.33;4.20;;;;;;;5.49;100.00;100197.78;5114976;28;20024;-74
2024/04/06 00:52:46;;;;;;;49.65;5.32;;;;;;;5.36;100.00;100189.56;5115215;28;20039;-73
2024/04/06 00:55:11;;;;;;;35.90;4.72;;;;;;;4.91;100.00;100132.63;5098058;28;20079;-74
2024/04/06 00:57:37;;;;;;;19.15;4.50;;;;;;;5.36;100.00;100218.91;5117122;28;20055;-75
2024/04/06 01:00:03;;;;;;;21.38;4.68;;;;;;;5.36;100.00;100227.78;5099391;28;20379;-73
2024/04/06 01:02:29;;;;;;;68.60;6.18;;;;;;;5.01;100.00;100188.38;5115057;28;20107;-74
2024/04/06 01:04:54;;;;;;;33.85;3.97;;;;;;;5.21;100.00;100242.06;5080231;28;20515;-73
2024/04/06 01:07:20;;;;;;;54.92;5.90;;;;;;;5.16;100.00;100240.72;5116440;28;20043;-73
2024/04/06 01:09:46;;;;;;;25.80;5.07;;;;;;;5.07;100.00;100249.00;5096342;28;20131;-73
2024/04/06 01:12:11;;;;;;;87.70;6.55;;;;;;;4.84;100.00;100241.81;5096457;28;20110;-73
2024/04/06 01:14:37;;;;;;;59.75;7.05;;;;;;;4.85;100.00;100250.63;5079248;28;20058;-74
2024/04/06 01:17:03;;;;;;;242.43;15.60;;;;;;;4.87;100.00;100268.09;5116191;28;20106;-73
2024/04/06 01:19:29;;;;;;;440.92;24.00;;;;;;;4.83;100.00;100276.63;5085369;28;20052;-74
2024/04/06 01:21:54;;;;;;;373.75;19.15;;;;;;;4.71;100.00;100261.03;5083723;28;20393;-73
2024/04/06 01:24:27;;;;;;;376.40;18.70;;;;;;;4.62;100.00;100261.22;5083817;28;20046;-74
2024/04/06 01:26:53;;;;;;;226.90;12.65;;;;;;;4.67;100.00;100275.72;5100386;28;20036;-73
2024/04/06 01:29:19;;;;;;;349.92;16.90;;;;;;;4.65;100.00;100271.53;5100175;28;20076;-74
2024/04/06 01:31:45;;;;;;;478.88;24.55;;;;;;;4.55;100.00;100270.94;5119450;28;20469;-74
2024/04/06 01:34:10;;;;;;;166.07;11.40;;;;;;;4.60;100.00;100284.53;5118994;28;20057;-73
2024/04/06 01:36:40;;;;;;;286.23;15.75;;;;;;;4.59;100.00;100299.72;5101460;28;20089;-74
2024/04/06 01:39:07;;;;;;;83.63;9.48;;;;;;;4.61;100.00;100315.53;5120284;28;20465;-73
2024/04/06 01:41:34;;;;;;;43.90;8.57;;;;;;;4.51;100.00;100306.91;5103862;28;20020;-74
2024/04/06 01:44:00;;;;;;;60.78;10.02;;;;;;;4.62;100.00;100331.34;5119415;28;20028;-73
2024/04/06 01:46:25;;;;;;;45.63;9.60;;;;;;;4.23;100.00;100273.50;5101182;28;20480;-73
2024/04/06 01:48:50;;;;;;;94.80;9.65;;;;;;;4.62;100.00;100330.50;5084509;28;20122;-74
2024/04/06 01:51:16;;;;;;;88.25;9.40;;;;;;;4.57;100.00;100332.84;5083899;28;20035;-73
2024/04/06 01:53:41;;;;;;;44.78;7.15;;;;;;;4.58;100.00;100345.19;5101081;28;20030;-74
2024/04/06 01:56:07;;;;;;;60.15;7.40;;;;;;;4.58;100.00;100347.84;5084398;28;20034;-73
2024/04/06 01:58:34;;;;;;;58.35;6.63;;;;;;;4.39;100.00;100328.56;5101891;28;20534;-72
2024/04/06 02:00:59;;;;;;;27.10;6.35;;;;;;;4.46;100.00;100358.84;5083593;28;20031;-74
2024/04/06 02:03:25;;;;;;;18.70;6.20;;;;;;;4.51;100.00;100371.69;5100549;28;20030;-73
2024/04/06 02:05:50;;;;;;;24.73;8.82;;;;;;;4.51;100.00;100373.53;5100893;28;20465;-73
2024/04/06 02:08:16;;;;;;;53.17;11.65;;;;;;;4.48;100.00;100375.53;5101421;28;20115;-74
2024/04/06 02:10:42;;;;;;;76.65;10.15;;;;;;;4.48;100.00;100378.19;5085472;28;20024;-74
2024/04/06 02:13:08;;;;;;;169.02;14.55;;;;;;;4.41;100.00;100376.38;5101369;28;20032;-74
2024/04/06 02:15:34;;;;;;;87.45;9.88;;;;;;;4.32;100.00;100380.03;5099339;28;20084;-73
2024/04/06 02:18:00;;;;;;;99.97;10.23;;;;;;;4.38;100.00;100390.84;5099666;28;20079;-73
2024/04/06 02:20:25;;;;;;;65.47;8.30;;;;;;;4.31;100.00;100411.19;5117626;28;20032;-73
2024/04/06 02:22:51;;;;;;;185.48;11.35;;;;;;;4.31;100.00;100415.69;5099077;28;20417;-74
2024/04/06 02:25:16;;;;;;;85.18;9.05;;;;;;;4.34;100.00;100410.84;5099209;28;20138;-73
2024/04/06 02:27:42;;;;;;;164.30;12.90;;;;;;;4.32;100.00;100415.50;5098388;28;20031;-73
2024/04/06 02:30:08;;;;;;;37.38;8.05;;;;;;;4.32;100.00;100430.66;5116751;28;20028;-73
2024/04/06 02:32:33;;;;;;;32.92;8.63;;;;;;;4.31;100.00;100440.47;5116914;28;20027;-73
2024/04/06 02:34:58;;;;;;;18.77;6.00;;;;;;;4.31;100.00;100456.47;5082088;28;20038;-74
2024/04/06 02:37:24;;;;;;;10.20;5.22;;;;;;;4.35;100.00;100451.63;5099302;28;20044;-72
2024/04/06 02:39:49;;;;;;;16.58;4.43;;;;;;;4.35;100.00;100441.81;5082329;28;20431;-73
2024/04/06 02:42:15;;;;;;;25.77;7.05;;;;;;;3.97;100.00;100406.00;5081771;28;20047;-73
2024/04/06 02:44:40;;;;;;;41.22;9.30;;;;;;;4.03;100.00;100408.00;5082214;28;20031;-74
2024/04/06 02:47:06;;;;;;;38.95;10.75;;;;;;;4.27;100.00;100459.59;5116966;28;20020;-75
2024/04/06 02:49:31;;;;;;;21.65;8.52;;;;;;;4.19;100.00;100461.28;5116221;28;20077;-73
2024/04/06 02:51:56;;;;;;;28.23;8.23;;;;;;;4.11;100.00;100442.66;5100101;28;20649;-74
2024/04/06 02:54:22;;;;;;;28.83;8.23;;;;;;;4.17;100.00;100465.94;5100032;28;20024;-73
2024/04/06 02:56:47;;;;;;;17.25;6.38;;;;;;;3.97;100.00;100449.47;5081442;28;20055;-72
2024/04/06 02:59:12;;;;;;;20.75;8.10;;;;;;;4.14;100.00;100492.91;5098131;28;20091;-72
2024/04/06 03:01:38;;;;;;;21.55;8.15;;;;;;;4.16;100.00;100498.88;5099068;28;20084;-73
2024/04/06 03:04:04;;;;;;;30.70;9.85;;;;;;;4.11;100.00;100485.25;5098914;28;20030;-72
2024/04/06 03:06:30;;;;;;;24.17;6.93;;;;;;;4.14;100.00;100484.91;5116644;28;20460;-73
2024/04/06 03:08:55;;;;;;;23.50;6.03;;;;;;;4.24;100.00;100490.91;5116637;28;20049;-73
2024/04/06 03:11:21;;;;;;;5.65;3.40;;;;;;;4.24;100.00;100498.91;5081589;28;20034;-72
2024/04/06 03:13:47;;;;;;;3.67;2.15;;;;;;;4.29;100.00;100505.56;5098094;28;20115;-74
2024/04/06 03:16:13;;;;;;;6.15;2.83;;;;;;;4.27;100.00;100512.88;5098605;28;20023;-73
2024/04/06 03:18:38;;;;;;;4.07;2.70;;;;;;;4.30;100.00;100508.03;5063873;28;20023;-73
2024/04/06 03:21:04;;;;;;;3.58;2.17;;;;;;;4.03;100.00;100473.75;5080944;28;20046;-72
2024/04/06 03:23:30;;;;;;;4.70;1.45;;;;;;;4.22;100.00;100508.06;5081367;28;20499;-72
2024/04/06 03:25:55;;;;;;;5.40;1.90;;;;;;;4.30;100.00;100515.22;5116607;28;20023;-73
2024/04/06 03:28:21;;;;;;;4.57;2.20;;;;;;;4.28;100.00;100515.38;5081156;28;20028;-73
2024/04/06 03:30:47;;;;;;;4.47;3.10;;;;;;;4.20;100.00;100515.38;5081379;28;20027;-74
2024/04/06 03:33:12;;;;;;;5.68;4.63;;;;;;;4.19;100.00;100519.88;5064645;28;20392;-73
2024/04/06 03:35:37;;;;;;;7.05;5.07;;;;;;;4.23;100.00;100529.19;5080624;28;20051;-72
2024/04/06 03:38:03;;;;;;;6.28;4.70;;;;;;;4.24;100.00;100535.38;5098298;28;20361;-73
2024/04/06 03:40:28;;;;;;;5.18;3.50;;;;;;;4.17;100.00;100521.88;5097734;28;20038;-73
2024/04/06 03:42:58;;;;;;;9.45;4.10;;;;;;;4.14;100.00;100535.50;5080611;28;20122;-72
2024/04/06 03:45:25;;;;;;;5.68;4.63;;;;;;;4.03;100.00;100527.00;5097990;28;20030;-73
2024/04/06 03:47:50;;;;;;;7.70;3.78;;;;;;;4.08;100.00;100546.81;5116569;28;20019;-72
2024/04/06 03:50:16;;;;;;;10.70;8.45;;;;;;;4.07;100.00;100557.63;5081329;28;20024;-73
2024/04/06 03:52:42;;;;;;;8.57;6.07;;;;;;;3.97;100.00;100550.63;5098307;28;20024;-74
2024/04/06 03:55:07;;;;;;;5.95;3.47;;;;;;;3.99;100.00;100566.41;5081028;28;20027;-73
2024/04/06 03:57:33;;;;;;;4.38;3.40;;;;;;;3.95;100.00;100570.41;5097680;28;20031;-73
2024/04/06 03:59:59;;;;;;;4.95;2.65;;;;;;;3.98;100.00;100591.38;5115833;28;20050;-72
2024/04/06 04:02:25;;;;;;;5.78;2.65;;;;;;;3.95;100.00;100592.53;5080565;28;20035;-72
2024/04/06 04:04:50;;;;;;;6.03;2.22;;;;;;;3.98;100.00;100594.03;5115385;28;20073;-72
2024/04/06 04:07:16;;;;;;;6.03;3.05;;;;;;;3.97;100.00;100603.88;5114163;28;20064;-73
2024/04/06 04:09:41;;;;;;;6.28;3.80;;;;;;;3.91;100.00;100590.38;5114405;28;20107;-72
2024/04/06 04:12:07;;;;;;;8.35;6.45;;;;;;;3.97;100.00;100603.88;5096090;28;20114;-72
2024/04/06 04:14:33;;;;;;;3.10;2.42;;;;;;;3.95;100.00;100607.69;5079571;28;20035;-73
2024/04/06 04:16:58;;;;;;;5.32;2.53;;;;;;;3.91;100.00;100614.31;5096284;28;20485;-73
2024/04/06 04:19:23;;;;;;;7.90;3.03;;;;;;;3.90;100.00;100624.13;5096870;28;20126;-73
2024/04/06 04:21:49;;;;;;;5.20;2.25;;;;;;;3.57;100.00;100577.06;5096798;28;20405;-73
2024/04/06 04:24:15;;;;;;;5.40;2.65;;;;;;;3.81;100.00;100629.56;5096582;28;20031;-73
2024/04/06 04:26:41;;;;;;;5.32;2.70;;;;;;;3.86;100.00;100632.59;5096214;28;20038;-73
2024/04/06 04:29:06;;;;;;;5.40;2.15;;;;;;;3.73;100.00;100611.72;5114011;28;20435;-72
2024/04/06 04:31:32;;;;;;;9.20;3.40;;;;;;;3.92;100.00;100653.25;5062624;28;20110;-73
2024/04/06 04:33:57;;;;;;;4.38;2.90;;;;;;;3.83;100.00;100640.88;5096176;28;20031;-73
2024/04/06 04:36:23;;;;;;;9.35;3.40;;;;;;;3.69;100.00;100637.84;5078806;28;20023;-72
2024/04/06 04:38:48;;;;;;;4.80;2.67;;;;;;;3.69;100.00;100637.84;5096088;28;20081;-73
2024/04/06 04:41:15;;;;;;;7.50;2.30;;;;;;;3.85;100.00;100669.03;5113963;28;20020;-73
2024/04/06 04:43:40;;;;;;;3.92;2.35;;;;;;;3.79;100.00;100651.03;5096711;28;20032;-73
2024/04/06 04:46:06;;;;;;;3.50;2.00;;;;;;;3.47;100.00;100607.28;5095446;28;20279;-72
2024/04/06 04:48:59;;;;;;;7.05;2.22;;;;;;;3.74;100.00;100655.97;5096112;28;20096;-72
2024/04/06 04:51:26;;;;;;;2.13;1.40;;;;;;;3.79;100.00;100674.16;5096174;28;20107;-73
2024/04/06 04:53:52;;;;;;;3.35;1.80;;;;;;;3.77;100.00;100666.31;5099849;28;20083;-72
2024/04/06 04:56:18;;;;;;;3.10;1.70;;;;;;;3.55;100.00;100642.91;5083799;28;20039;-73
2024/04/06 04:58:44;;;;;;;2.30;1.83;;;;;;;3.74;100.00;100670.13;5100256;28;20027;-73
2024/04/06 05:01:09;;;;;;;5.22;1.83;;;;;;;3.83;100.00;100697.63;5083106;28;20401;-72
2024/04/06 05:03:35;;;;;;;6.43;1.98;;;;;;;3.86;100.00;100697.31;5117954;28;20187;-73
2024/04/06 05:06:02;;;;;;;5.22;2.00;;;;;;;3.87;100.00;100698.13;5118152;28;20039;-74
2024/04/06 05:08:28;;;;;;;3.80;2.13;;;;;;;3.87;100.00;100704.28;5099132;28;20056;-73
2024/04/06 05:10:54;;;;;;;4.65;2.15;;;;;;;3.86;100.00;100713.28;5117768;28;20042;-73
2024/04/06 05:13:19;;;;;;;4.40;1.92;;;;;;;3.91;100.00;100715.47;5099957;28;20092;-73
2024/04/06 05:15:52;;;;;;;5.90;2.35;;;;;;;3.64;100.00;100677.41;5083039;27;20028;-72
2024/04/06 05:18:21;;;;;;;3.58;2.60;;;;;;;3.92;100.00;100727.78;5099144;28;20150;-74
2024/04/06 05:20:54;;;;;;;8.20;3.70;;;;;;;3.88;100.00;100737.09;5087732;28;20169;-73
2024/04/06 05:23:20;;;;;;;6.45;3.03;;;;;;;3.85;100.00;100740.06;5115715;28;20043;-72
2024/04/06 05:25:47;;;;;;;3.92;2.40;;;;;;;3.69;100.00;100717.66;5108548;28;20531;-73
2024/04/06 05:28:14;;;;;;;5.20;2.30;;;;;;;3.83;100.00;100750.00;5115850;28;20565;-72
2024/04/06 05:30:40;;;;;;;4.10;1.90;;;;;;;3.83;100.00;100761.50;5078904;28;20036;-72
2024/04/06 05:33:07;;;;;;;4.68;2.63;;;;;;;3.75;100.00;100750.81;5095289;28;20095;-74
2024/04/06 05:35:32;;;;;;;7.60;2.67;;;;;;;3.78;100.00;100755.81;5079882;28;20490;-72
2024/04/06 05:37:57;;;;;;;3.75;1.88;;;;;;;3.81;100.00;100774.16;5079817;28;20025;-72
2024/04/06 05:40:23;;;;;;;6.05;2.42;;;;;;;3.84;100.00;100787.13;5095262;28;20032;-73
2024/04/06 05:42:48;;;;;;;4.32;2.20;;;;;;;3.82;100.00;100791.78;5095660;28;20036;-74
2024/04/06 05:45:14;;;;;;;2.83;1.60;;;;;;;3.87;100.00;100791.28;5084507;28;20032;-77
2024/04/06 05:47:39;;;;;;;5.55;2.10;;;;;;;3.71;100.00;100760.94;5101112;28;20012;-77
2024/04/06 05:50:05;;;;;;;3.83;1.92;;;;;;;3.85;100.00;100790.63;5102194;28;20784;-73
2024/04/06 05:52:31;;;;;;;4.38;1.73;;;;;;;3.85;100.00;100774.66;5106068;28;20028;-75
2024/04/06 05:54:59;;;;;;;3.25;1.63;;;;;;;3.84;100.00;100783.63;5102035;28;20051;-72
2024/04/06 05:57:24;;;;;;;3.20;1.75;;;;;;;3.75;100.00;100780.09;5102324;28;20023;-75
2024/04/06 05:59:50;;;;;;;4.45;1.70;;;;;;;3.84;100.00;100795.13;5068902;28;20043;-77
2024/04/06 06:02:15;;;;;;;3.88;1.48;;;;;;;3.86;100.00;100790.47;5120611;28;20066;-75
2024/04/06 06:04:44;;;;;;;7.88;2.08;;;;;;;3.86;100.00;100786.97;5115838;28;20125;-73
2024/04/06 06:07:09;;;;;;;4.25;1.77;;;;;;;3.91;100.00;100784.69;5078804;28;20677;-72
2024/04/06 06:09:34;;;;;;;4.43;1.92;;;;;;;3.89;100.00;100781.34;5082171;28;20081;-77
2024/04/06 06:12:00;;;;;;;3.45;1.75;;;;;;;3.96;100.00;100793.03;5081000;28;20053;-71
2024/04/06 06:14:27;;;;;;;4.88;1.80;;;;;;;3.96;100.00;100801.00;5061053;28;20425;-72
2024/04/06 06:16:52;;;;;;;4.43;2.00;;;;;;;3.92;100.00;100787.19;5079767;28;20032;-73
2024/04/06 06:19:18;;;;;;;5.03;2.10;;;;;;;3.97;100.00;100795.56;5077137;28;20036;-74
2024/04/06 06:21:43;;;;;;;3.40;1.63;;;;;;;3.97;100.00;100797.34;5096716;28;20034;-73
2024/04/06 06:24:09;;;;;;;6.05;2.70;;;;;;;3.88;100.00;100800.97;5097824;28;20119;-74
2024/04/06 06:26:34;;;;;;;5.40;1.55;;;;;;;3.95;100.00;100813.50;5096922;28;20032;-74
2024/04/06 06:29:00;;;;;;;4.57;2.03;;;;;;;3.95;100.00;100818.00;5077921;28;20038;-73
2024/04/06 06:31:25;;;;;;;3.20;1.40;;;;;;;3.10;100.00;100674.00;5079863;28;20024;-74
2024/04/06 06:33:53;;;;;;;2.63;1.52;;;;;;;3.87;100.00;100797.44;5079248;28;20036;-73
2024/04/06 06:36:19;;;;;;;4.05;1.42;;;;;;;3.94;100.00;100810.97;5080675;28;20174;-74
2024/04/06 06:38:45;;;;;;;4.95;1.80;;;;;;;3.65;100.00;100753.56;5097817;28;20057;-74
2024/04/06 06:41:10;;;;;;;4.38;1.50;;;;;;;4.00;100.00;100805.03;5099673;28;20032;-76
2024/04/06 06:43:38;;;;;;;5.13;1.40;;;;;;;4.02;100.00;100800.41;5081643;28;20099;-74
2024/04/06 06:46:03;;;;;;;2.92;1.30;;;;;;;3.91;100.00;100806.81;5097428;28;20035;-74
2024/04/06 06:48:29;;;;;;;3.90;1.60;;;;;;;4.06;100.00;100814.22;5102578;28;20031;-79
2024/04/06 06:50:54;;;;;;;3.35;1.38;;;;;;;4.10;100.00;100818.25;5073134;28;20406;-78
2024/04/06 06:53:20;;;;;;;3.05;1.35;;;;;;;3.99;100.00;100798.03;5086785;28;20031;-77
2024/04/06 06:55:45;;;;;;;3.90;1.30;;;;;;;3.98;100.00;100815.00;5071622;28;20028;-77
2024/04/06 06:58:11;;;;;;;2.88;1.35;;;;;;;3.89;100.00;100824.75;5103566;28;20382;-75
2024/04/06 07:00:44;;;;;;;1.58;1.10;;;;;;;4.06;100.00;100824.88;5119338;28;20028;-74
2024/04/06 07:03:10;;;;;;;3.58;1.42;;;;;;;3.89;100.00;100811.44;5106917;28;20032;-76
2024/04/06 07:05:35;;;;;;;3.83;1.30;;;;;;;4.10;100.00;100843.03;5088882;28;20035;-76
2024/04/06 07:08:00;;;;;;;4.63;1.40;;;;;;;4.17;100.00;100860.09;5103309;28;20563;-77
2024/04/06 07:10:26;;;;;;;2.42;1.30;;;;;;;3.92;100.00;100810.31;5087569;28;20031;-76
2024/04/06 07:12:51;;;;;;;2.85;1.35;;;;;;;4.29;100.00;100879.28;5088695;28;20028;-78
2024/04/06 07:15:17;;;;;;;3.63;1.70;;;;;;;4.35;100.00;100891.16;5104859;28;20430;-75
2024/04/06 07:17:42;;;;;;;3.00;1.52;;;;;;;4.37;100.00;100891.81;5105770;28;20118;-77
2024/04/06 07:20:08;;;;;;;3.78;1.23;;;;;;;3.95;100.00;100823.31;5088502;28;20111;-75
2024/04/06 07:22:34;;;;;;;4.05;1.40;;;;;;;4.45;100.00;100906.03;5088009;28;20448;-78
2024/04/06 07:24:59;;;;;;;3.78;1.40;;;;;;;4.44;100.00;100912.38;5086825;28;20077;-77
2024/04/06 07:27:24;;;;;;;4.22;1.30;;;;;;;4.44;100.00;100914.22;5103506;28;20031;-77
2024/04/06 07:29:50;;;;;;;5.00;1.17;;;;;;;4.45;100.00;100919.38;5088010;28;20038;-77
2024/04/06 07:32:16;;;;;;;2.53;1.20;;;;;;;4.44;100.00;100911.53;5104352;28;20028;-76
2024/04/06 07:34:41;;;;;;;3.03;1.13;;;;;;;4.18;100.00;100858.25;5087286;28;20064;-76
2024/04/06 07:37:07;;;;;;;1.50;1.00;;;;;;;4.39;100.00;100897.84;5121454;28;20038;-77
2024/04/06 07:39:32;;;;;;;3.53;1.00;;;;;;;4.54;100.00;100922.94;5069337;28;20035;-77
2024/04/06 07:41:58;;;;;;;1.27;0.90;;;;;;;4.57;100.00;100927.94;5121304;28;20027;-75
2024/04/06 07:44:23;;;;;;;2.50;1.20;;;;;;;4.60;100.00;100921.44;5102677;28;20032;-74
2024/04/06 07:46:49;;;;;;;1.42;1.02;;;;;;;4.39;100.00;100897.84;5120935;28;20019;-77
2024/04/06 07:49:14;;;;;;;1.55;1.20;;;;;;;4.60;100.00;100934.78;5085843;28;20057;-76
2024/04/06 07:51:41;;;;;;;2.08;1.00;;;;;;;4.73;100.00;100940.50;5102171;28;20031;-77
2024/04/06 07:54:07;;;;;;;2.88;1.20;;;;;;;4.38;100.00;100890.84;5087088;28;20024;-75
2024/04/06 07:56:33;;;;;;;2.53;0.80;;;;;;;4.64;100.00;100942.31;5110314;28;20046;-75
2024/04/06 07:58:58;;;;;;;2.25;1.20;;;;;;;4.79;100.00;100960.38;5093595;28;20028;-76
2024/04/06 08:01:24;;;;;;;3.58;1.00;;;;;;;4.81;100.00;100953.06;5090751;28;20042;-76
2024/04/06 08:03:49;;;;;;;2.35;0.90;;;;;;;4.57;100.00;100919.09;5087834;28;20028;-75
2024/04/06 08:06:16;;;;;;;1.52;1.00;;;;;;;4.60;100.00;100914.31;5086790;28;20091;-76
2024/04/06 08:08:43;;;;;;;3.42;1.23;;;;;;;4.79;100.00;100965.72;5121335;28;20162;-75
2024/04/06 08:11:09;;;;;;;3.00;0.93;;;;;;;4.68;100.00;100950.81;5102080;28;20126;-76
2024/04/06 08:13:34;;;;;;;1.50;0.80;;;;;;;4.74;100.00;100963.53;5103289;28;20449;-75
2024/04/06 08:16:00;;;;;;;3.03;0.98;;;;;;;4.74;100.00;100976.03;5102663;28;20032;-76
2024/04/06 08:18:26;;;;;;;5.18;1.00;;;;;;;4.74;100.00;100987.53;5101735;28;20024;-75
2024/04/06 08:20:52;;;;;;;1.23;0.80;;;;;;;4.68;100.00;100969.50;5084378;28;20077;-75
2024/04/06 08:23:18;;;;;;;2.30;0.80;;;;;;;4.79;100.00;100987.03;5069700;28;20088;-76
2024/04/06 08:25:45;;;;;;;2.17;1.00;;;;;;;4.81;100.00;101001.06;5085615;28;20040;-78
2024/04/06 08:28:11;;;;;;;1.63;0.70;;;;;;;4.88;100.00;101008.25;5124574;28;20073;-75
2024/04/06 08:30:38;;;;;;;5.15;0.90;;;;;;;4.42;100.00;100918.84;5119158;28;20024;-75
2024/04/06 08:33:05;;;;;;;1.90;0.85;;;;;;;5.04;100.00;101004.88;5099325;28;20031;-75
2024/04/06 08:35:34;;;;;;;2.58;0.98;;;;;;;4.77;100.00;100957.03;5100512;28;20474;-74
2024/04/06 08:38:00;;;;;;;3.45;0.77;;;;;;;5.14;100.00;101002.09;5121240;28;20148;-75
2024/04/06 08:40:26;;;;;;;1.45;0.60;;;;;;;5.03;100.00;100992.50;5084552;28;20028;-75
2024/04/06 08:42:55;;;;;;;2.17;0.60;;;;;;;5.32;100.00;101036.69;5118866;28;20062;-76
2024/04/06 08:45:21;;;;;;;1.60;0.60;;;;;;;4.91;100.00;100965.28;5119815;28;20062;-76
2024/04/06 08:47:47;;;;;;;2.67;0.63;;;;;;;5.27;100.00;101028.34;5103023;28;20072;-75
2024/04/06 08:50:13;;;;;;;1.70;0.60;;;;;;;5.04;100.00;101012.88;5117892;28;20023;-76
2024/04/06 08:52:39;;;;;;;2.78;0.68;;;;;;;5.09;100.00;101021.22;5118172;28;20062;-74
2024/04/06 08:55:09;;;;;;;1.65;0.70;;;;;;;5.12;100.00;101031.56;5099006;28;20020;-74
2024/04/06 08:57:37;;;;;;;3.05;0.63;;;;;;;5.27;100.00;101036.34;5116611;28;20023;-71
2024/04/06 09:00:07;;;;;;;3.50;0.60;;;;;;;5.15;100.00;100993.91;5118559;28;20023;-74
2024/04/06 09:02:35;;;;;;;1.67;0.57;;;;;;;5.22;100.00;101010.13;5100500;28;20493;-76
2024/04/06 09:05:01;;;;;;;1.48;0.47;;;;;;;5.28;100.00;101027.34;5085433;28;20032;-79
2024/04/06 09:07:27;;;;;;;1.58;0.60;;;;;;;5.22;100.00;101025.28;5121650;28;20128;-74
2024/04/06 09:09:54;;;;;;;1.48;0.50;;;;;;;4.99;100.00;100988.50;5100308;28;20103;-72
2024/04/06 09:12:19;;;;;;;0.90;0.50;;;;;;;5.08;100.00;100997.38;5097019;28;20039;-74
2024/04/06 09:14:46;;;;;;;1.90;0.70;;;;;;;5.23;100.00;101025.16;5061384;28;20027;-77
2024/04/06 09:17:16;;;;;;;2.60;0.55;;;;;;;5.42;100.00;101035.56;5077478;28;20401;-73
2024/04/06 09:19:42;;;;;;;0.93;0.43;;;;;;;5.41;100.00;101041.06;5094644;28;20030;-73
2024/04/06 09:22:08;;;;;;;2.03;0.50;;;;;;;5.39;100.00;101043.06;5114523;28;20118;-72
2024/04/06 09:24:33;;;;;;;3.35;0.57;;;;;;;5.31;100.00;101021.69;5118699;28;20031;-71
2024/04/06 09:27:10;;;;;;;4.97;1.00;;;;;;;5.33;100.00;101039.22;5095280;28;20031;-72
2024/04/06 09:29:36;;;;;;;2.85;0.70;;;;;;;5.30;100.00;101038.69;5095578;28;20023;-73
2024/04/06 09:32:03;;;;;;;2.58;0.50;;;;;;;5.56;100.00;101057.31;5078940;28;20151;-70
2024/04/06 09:34:29;;;;;;;1.20;0.40;;;;;;;5.68;100.00;101065.88;5101887;28;20012;-73
2024/04/06 09:37:07;;;;;;;1.00;0.57;;;;;;;5.58;100.00;101031.31;5041347;28;20035;-72
2024/04/06 09:39:34;;;;;;;1.02;0.73;;;;;;;5.79;100.00;101057.56;5096619;28;20081;-71
2024/04/06 09:42:01;;;;;;;1.58;0.50;;;;;;;5.91;100.00;101063.47;5096587;28;20039;-72
2024/04/06 09:44:27;;;;;;;2.17;0.60;;;;;;;5.90;100.00;101067.97;5084111;28;20024;-72
2024/04/06 09:46:53;;;;;;;0.82;0.40;;;;;;;5.86;100.00;101051.44;5104246;27;20114;-74
2024/04/06 09:49:20;;;;;;;0.82;0.40;;;;;;;5.76;100.00;101025.84;5078346;28;20084;-73
2024/04/06 09:51:46;;;;;;;1.40;0.40;;;;;;;5.86;100.00;101055.91;5114608;27;20038;-73
2024/04/06 09:54:12;;;;;;;1.13;0.40;;;;;;;6.08;100.00;101049.16;5106201;28;20024;-72
2024/04/06 09:56:37;;;;;;;0.95;0.43;;;;;;;6.13;100.00;101054.03;5095845;28;20118;-71
2024/04/06 09:59:03;;;;;;;0.50;0.45;;;;;;;6.03;100.00;101038.16;5099659;28;20028;-71
2024/04/06 10:01:30;;;;;;;1.73;0.50;;;;;;;6.29;100.00;101070.06;5071317;28;20016;-71
2024/04/06 10:03:55;;;;;;;1.15;0.30;;;;;;;6.10;100.00;101028.47;5064126;28;20028;-71
2024/04/06 10:06:30;;;;;;;1.85;0.40;;;;;;;6.36;100.00;101081.81;5066469;28;20093;-71
2024/04/06 10:09:00;;;;;;;2.28;0.50;;;;;;;6.25;100.00;101074.09;5109744;28;20300;-71
2024/04/06 10:11:29;;;;;;;1.00;0.30;;;;;;;6.02;100.00;101056.00;5080244;28;20371;-72
2024/04/06 10:14:06;;;;;;;1.63;0.47;;;;;;;6.30;100.00;101079.78;5078063;28;20050;-70
2024/04/06 10:16:34;;;;;;;2.25;0.50;;;;;;;6.29;100.00;101075.41;5080054;28;20351;-71
2024/04/06 10:19:00;;;;;;;1.73;0.40;;;;;;;6.31;100.00;101081.44;5094910;28;20031;-71
2024/04/06 10:21:29;;;;;;;1.05;0.50;;;;;;;6.19;100.00;101056.91;5114245;28;20027;-71
2024/04/06 10:23:54;;;;;;;0.88;0.40;;;;;;;6.20;100.00;101053.22;5099177;28;20043;-71
2024/04/06 10:26:21;;;;;;;0.63;0.40;;;;;;;6.42;100.00;101085.63;5098775;28;20028;-71
2024/04/06 10:28:47;;;;;;;0.60;0.50;;;;;;;6.38;100.00;101074.44;5117422;28;20038;-71
2024/04/06 10:31:13;;;;;;;0.73;0.40;;;;;;;6.43;100.00;101074.78;5082339;28;20019;-71
2024/04/06 10:33:42;;;;;;;1.40;0.55;;;;;;;6.38;100.00;101082.47;5097511;28;20028;-71
2024/04/06 10:36:12;;;;;;;1.45;0.43;;;;;;;6.36;100.00;101081.81;5098626;28;20038;-71
2024/04/06 10:38:41;;;;;;;1.50;0.57;;;;;;;6.54;100.00;101085.16;5116683;28;20028;-70
2024/04/06 10:41:08;;;;;;;1.92;0.50;;;;;;;6.50;100.00;101046.41;5126030;28;20038;-71
2024/04/06 10:43:35;;;;;;;0.80;0.38;;;;;;;6.30;100.00;101053.06;5099421;28;20039;-71
2024/04/06 10:46:04;;;;;;;2.15;0.50;;;;;;;6.39;100.00;101068.13;5098475;28;20513;-71
2024/04/06 10:48:31;;;;;;;1.73;0.63;;;;;;;6.43;100.00;101050.75;5098696;28;20114;-71
2024/04/06 10:50:57;;;;;;;3.20;0.63;;;;;;;6.51;100.00;101050.72;5098698;28;20076;-71
2024/04/06 10:53:23;;;;;;;1.35;0.40;;;;;;;6.70;100.00;101087.00;5081818;28;20027;-70
2024/04/06 10:55:49;;;;;;;1.77;0.47;;;;;;;6.61;100.00;101055.09;5107155;28;20079;-71
2024/04/06 10:58:16;;;;;;;1.08;0.40;;;;;;;6.80;100.00;101092.19;5110388;28;20028;-71
2024/04/06 11:00:42;;;;;;;2.15;0.52;;;;;;;6.27;100.00;101032.00;5101103;28;20028;-71
2024/04/06 11:03:08;;;;;;;1.52;0.40;;;;;;;6.47;100.00;101097.50;5086163;28;20043;-71
2024/04/06 11:05:35;;;;;;;1.70;0.60;;;;;;;6.42;100.00;101099.84;5080970;28;20027;-71
2024/04/06 11:08:05;;;;;;;2.38;0.50;;;;;;;6.48;100.00;101099.19;5063021;28;20085;-70
2024/04/06 11:10:31;;;;;;;2.20;0.70;;;;;;;6.43;100.00;101103.38;5077143;28;20020;-72
2024/04/06 11:12:57;;;;;;;3.33;0.43;;;;;;;6.22;100.00;101077.09;5096383;28;20250;-70
2024/04/06 11:15:25;;;;;;;1.75;0.70;;;;;;;6.37;100.00;101106.69;5061290;28;20031;-70
2024/04/06 11:17:50;;;;;;;0.85;0.50;;;;;;;6.16;100.00;101083.94;5076733;28;20112;-70